Time;durP1;ratioP1;P1;durP2;ratioP2;P2;SDS_P1;SDS_P2;PMS_P1;PMS_P2;Temp;Humidity;BMP_temperature;BMP_pressure;BME280_temperature;BME280_humidity;BME280_pressure;Samples;Min_cycle;Max_cycle;Signal;HPM_P1;HPM_P2
2023/07/18 00:01:00;;;;;;;2.42;1.20;;;15.70;47.30;;;;;;5029042;28;20483;-72
2023/07/18 00:03:28;;;;;;;2.40;1.42;;;15.60;48.40;;;;;;5049454;28;20044;-72
2023/07/18 00:05:54;;;;;;;3.03;1.80;;;15.60;49.70;;;;;;5025352;28;20639;-72
2023/07/18 00:08:20;;;;;;;2.78;1.40;;;15.50;50.60;;;;;;5049461;28;20434;-71
2023/07/18 00:10:45;;;;;;;1.58;1.40;;;15.40;51.50;;;;;;5028918;28;20063;-72
2023/07/18 00:13:11;;;;;;;2.13;1.20;;;15.40;52.80;;;;;;5049331;28;20374;-71
2023/07/18 00:15:37;;;;;;;2.15;1.25;;;15.30;53.90;;;;;;5028638;28;20026;-64
2023/07/18 00:18:03;;;;;;;3.33;1.50;;;15.20;55.40;;;;;;5049169;28;20327;-64
2023/07/18 00:20:29;;;;;;;3.90;1.50;;;15.20;56.20;;;;;;5028510;28;20560;-64
2023/07/18 00:22:55;;;;;;;1.30;1.10;;;15.20;57.80;;;;;;5045736;28;20057;-65
2023/07/18 00:25:21;;;;;;;2.92;1.38;;;15.00;58.70;;;;;;5049753;28;20056;-64
2023/07/18 00:27:53;;;;;;;2.05;1.30;;;15.00;59.30;;;;;;5034029;28;20405;-64
2023/07/18 00:30:20;;;;;;;3.38;1.42;;;15.00;60.60;;;;;;5038707;28;20052;-63
2023/07/18 00:32:46;;;;;;;2.83;1.50;;;14.90;61.30;;;;;;5040548;28;20170;-64
2023/07/18 00:35:18;;;;;;;2.75;1.50;;;14.80;61.80;;;;;;5049737;28;20572;-64
2023/07/18 00:37:44;;;;;;;4.18;1.55;;;14.80;63.10;;;;;;5032600;28;20040;-63
2023/07/18 00:40:12;;;;;;;2.75;1.52;;;14.80;64.00;;;;;;5048004;28;20067;-64
2023/07/18 00:42:39;;;;;;;2.28;1.35;;;14.70;65.10;;;;;;5032137;28;20017;-64
2023/07/18 00:45:06;;;;;;;3.75;1.45;;;14.60;66.20;;;;;;5047666;28;20029;-64
2023/07/18 00:47:37;;;;;;;2.13;1.40;;;14.60;66.30;;;;;;5028047;28;20029;-64
2023/07/18 00:50:10;;;;;;;2.17;1.63;;;14.50;67.10;;;;;;5049143;28;20029;-64
2023/07/18 00:52:40;;;;;;;1.58;1.30;;;14.50;68.00;;;;;;5025004;28;20389;-64
2023/07/18 00:55:07;;;;;;;3.72;1.38;;;14.40;68.90;;;;;;5009095;28;20030;-65
2023/07/18 00:57:34;;;;;;;2.90;1.60;;;14.30;69.40;;;;;;5028904;28;20180;-64
2023/07/18 01:00:00;;;;;;;2.05;1.50;;;14.30;71.00;;;;;;5048436;28;20036;-64
2023/07/18 01:02:26;;;;;;;4.13;1.48;;;14.20;71.10;;;;;;5026204;28;20034;-64
2023/07/18 01:04:54;;;;;;;3.58;1.50;;;14.10;72.20;;;;;;5041033;28;20021;-63
2023/07/18 01:07:20;;;;;;;2.20;1.70;;;14.10;73.30;;;;;;5042471;28;20029;-64
2023/07/18 01:09:47;;;;;;;4.45;1.77;;;14.00;74.00;;;;;;5047378;28;20556;-65
2023/07/18 01:12:12;;;;;;;6.03;1.73;;;14.00;76.10;;;;;;5027280;28;20512;-65
2023/07/18 01:14:38;;;;;;;2.97;1.48;;;13.90;75.80;;;;;;5048071;28;20021;-69
2023/07/18 01:17:05;;;;;;;4.10;1.23;;;13.90;78.30;;;;;;5027284;28;20037;-68
2023/07/18 01:19:31;;;;;;;3.80;1.42;;;13.80;78.10;;;;;;5048046;28;20047;-70
2023/07/18 01:21:56;;;;;;;5.22;1.70;;;13.70;78.00;;;;;;5027251;28;20060;-69
2023/07/18 01:24:22;;;;;;;2.80;1.33;;;13.70;79.60;;;;;;5047498;28;20107;-70
2023/07/18 01:26:47;;;;;;;2.38;1.58;;;13.60;80.70;;;;;;5038318;28;20032;-69
2023/07/18 01:29:13;;;;;;;2.67;1.60;;;13.60;80.60;;;;;;5047045;28;20120;-67
2023/07/18 01:31:38;;;;;;;2.40;1.73;;;13.50;80.70;;;;;;5036348;28;20037;-69
2023/07/18 01:34:05;;;;;;;3.67;1.73;;;13.50;81.40;;;;;;5028798;28;20034;-69
2023/07/18 01:36:30;;;;;;;2.75;1.35;;;13.50;82.20;;;;;;5044223;28;20025;-68
2023/07/18 01:38:56;;;;;;;3.28;1.67;;;13.40;82.30;;;;;;5028810;28;20047;-69
2023/07/18 01:41:21;;;;;;;2.58;1.77;;;13.40;82.90;;;;;;5045385;28;20048;-69
2023/07/18 01:43:47;;;;;;;2.58;1.30;;;13.30;83.70;;;;;;5048087;28;20485;-69
2023/07/18 01:46:12;;;;;;;3.10;1.30;;;13.30;84.40;;;;;;5033007;28;20037;-69
2023/07/18 01:48:38;;;;;;;2.38;1.30;;;13.30;84.90;;;;;;5048107;28;20033;-69
2023/07/18 01:51:03;;;;;;;4.57;1.52;;;13.20;85.20;;;;;;5031774;28;20033;-69
2023/07/18 01:53:29;;;;;;;2.55;1.55;;;13.20;85.40;;;;;;5046729;28;20596;-69
2023/07/18 01:55:57;;;;;;;2.47;1.70;;;13.20;85.90;;;;;;5030657;28;20017;-69
2023/07/18 01:58:23;;;;;;;2.95;1.70;;;13.10;86.30;;;;;;5047894;28;20037;-70
2023/07/18 02:00:48;;;;;;;2.15;1.38;;;13.10;87.00;;;;;;5029757;28;20029;-68
2023/07/18 02:03:14;;;;;;;3.45;1.73;;;13.10;87.80;;;;;;5048111;28;20017;-69
2023/07/18 02:05:39;;;;;;;4.65;1.80;;;13.10;88.80;;;;;;5030957;28;20187;-69
2023/07/18 02:08:05;;;;;;;3.13;1.80;;;13.00;89.80;;;;;;5028110;28;20032;-69
2023/07/18 02:10:31;;;;;;;2.92;1.40;;;13.00;89.40;;;;;;5043778;28;20112;-69
2023/07/18 02:13:03;;;;;;;4.97;1.60;;;13.00;90.20;;;;;;5047867;28;20025;-70
2023/07/18 02:15:28;;;;;;;3.25;1.80;;;12.90;90.10;;;;;;5026352;28;20052;-68
2023/07/18 02:17:54;;;;;;;3.42;1.50;;;12.90;90.70;;;;;;5048058;28;20484;-70
2023/07/18 02:20:19;;;;;;;2.50;1.77;;;12.80;91.40;;;;;;5028220;28;20068;-69
2023/07/18 02:22:47;;;;;;;3.28;1.48;;;12.80;91.70;;;;;;5026360;28;20149;-69
2023/07/18 02:25:17;;;;;;;4.13;2.17;;;12.80;91.60;;;;;;5047233;28;20059;-69
2023/07/18 02:27:43;;;;;;;4.53;1.52;;;12.80;91.90;;;;;;5025928;28;20022;-69
2023/07/18 02:30:11;;;;;;;2.92;1.58;;;12.70;92.10;;;;;;5039085;28;20721;-69
2023/07/18 02:32:40;;;;;;;4.32;1.60;;;12.70;92.50;;;;;;5027710;28;20022;-71
2023/07/18 02:35:07;;;;;;;3.60;1.80;;;12.60;92.40;;;;;;5047357;28;20457;-70
2023/07/18 02:37:33;;;;;;;2.28;1.67;;;12.60;92.90;;;;;;5043285;28;20041;-70
2023/07/18 02:39:58;;;;;;;3.25;1.70;;;12.60;93.30;;;;;;5049470;28;20035;-69
2023/07/18 02:42:24;;;;;;;2.17;1.75;;;12.60;93.50;;;;;;5030168;28;20108;-69
2023/07/18 02:44:49;;;;;;;2.85;1.55;;;12.50;93.80;;;;;;5050640;28;20499;-69
2023/07/18 02:47:15;;;;;;;2.70;1.80;;;12.50;94.10;;;;;;5030049;28;20489;-69
2023/07/18 02:49:41;;;;;;;3.50;1.48;;;12.40;94.40;;;;;;5050466;28;20090;-70
2023/07/18 02:52:07;;;;;;;3.63;1.88;;;12.40;94.60;;;;;;5029795;28;20052;-69
2023/07/18 02:54:33;;;;;;;2.20;1.67;;;12.40;94.70;;;;;;5050336;28;20060;-69
2023/07/18 02:56:59;;;;;;;4.30;1.80;;;12.30;95.00;;;;;;5029764;28;20124;-65
2023/07/18 02:59:24;;;;;;;2.38;1.45;;;12.30;95.00;;;;;;5050299;28;20728;-70
2023/07/18 03:01:50;;;;;;;2.75;1.55;;;12.30;95.40;;;;;;5029927;28;20217;-70
2023/07/18 03:04:19;;;;;;;2.60;1.80;;;12.30;95.80;;;;;;5050285;28;20040;-69
2023/07/18 03:06:47;;;;;;;3.25;1.80;;;12.30;96.50;;;;;;5036748;28;20398;-70
2023/07/18 03:09:16;;;;;;;3.22;2.03;;;12.30;96.50;;;;;;5031013;28;20124;-69
2023/07/18 03:11:41;;;;;;;2.50;1.80;;;12.30;96.90;;;;;;5048456;28;20104;-69
2023/07/18 03:14:08;;;;;;;4.20;2.08;;;12.30;97.40;;;;;;5031177;28;20124;-68
2023/07/18 03:16:33;;;;;;;4.57;2.40;;;12.30;97.50;;;;;;5048093;28;20029;-69
2023/07/18 03:18:59;;;;;;;3.35;1.90;;;12.30;97.60;;;;;;5031146;28;20060;-70
2023/07/18 03:21:25;;;;;;;4.43;2.25;;;12.30;97.80;;;;;;5047909;28;20037;-70
2023/07/18 03:23:51;;;;;;;2.55;1.75;;;12.30;98.00;;;;;;5031270;28;20026;-69
2023/07/18 03:26:16;;;;;;;4.43;1.88;;;12.40;98.60;;;;;;5047824;28;20116;-69
2023/07/18 03:28:42;;;;;;;4.95;1.92;;;12.30;99.10;;;;;;5050556;28;20033;-70
2023/07/18 03:31:07;;;;;;;6.68;1.88;;;12.40;98.80;;;;;;5034434;28;20071;-71
2023/07/18 03:33:33;;;;;;;4.32;2.22;;;12.40;98.90;;;;;;5050454;28;20025;-70
2023/07/18 03:35:58;;;;;;;5.90;2.10;;;12.40;99.90;;;;;;5033409;28;20028;-69
2023/07/18 03:38:24;;;;;;;5.07;2.10;;;12.40;99.90;;;;;;5050344;28;20070;-69
2023/07/18 03:40:50;;;;;;;2.75;1.95;;;12.50;99.90;;;;;;5032267;28;20025;-69
2023/07/18 03:43:15;;;;;;;4.35;2.08;;;12.50;99.90;;;;;;5050314;28;20079;-70
2023/07/18 03:45:41;;;;;;;2.72;1.85;;;12.50;99.90;;;;;;5030615;28;20033;-70
2023/07/18 03:48:06;;;;;;;5.43;2.13;;;12.60;99.90;;;;;;5050101;28;20100;-71
2023/07/18 03:50:32;;;;;;;4.13;1.80;;;12.60;99.90;;;;;;5029050;28;20038;-70
2023/07/18 03:52:57;;;;;;;3.88;2.05;;;12.70;99.90;;;;;;5049969;28;20041;-70
2023/07/18 03:55:23;;;;;;;3.35;2.20;;;12.70;99.90;;;;;;5030502;28;20432;-69
2023/07/18 03:57:48;;;;;;;4.30;1.98;;;13.00;99.90;;;;;;5047423;28;20040;-70
2023/07/18 04:00:17;;;;;;;3.65;1.83;;;13.80;99.90;;;;;;5030626;28;20026;-70
2023/07/18 04:02:43;;;;;;;4.22;1.80;;;14.60;99.20;;;;;;5029078;28;20563;-70
2023/07/18 04:05:11;;;;;;;4.15;2.00;;;15.50;96.90;;;;;;5038040;28;20095;-69
2023/07/18 04:07:36;;;;;;;3.33;1.98;;;16.30;94.60;;;;;;5028013;28;20091;-71
2023/07/18 04:10:02;;;;;;;3.40;1.52;;;17.10;92.40;;;;;;5049081;28;20500;-70
2023/07/18 04:12:28;;;;;;;2.55;2.03;;;17.90;90.60;;;;;;5028326;28;20034;-71
2023/07/18 04:14:54;;;;;;;3.42;1.90;;;18.60;87.10;;;;;;5049352;28;20404;-71
2023/07/18 04:17:19;;;;;;;3.92;2.33;;;19.40;84.20;;;;;;5028458;28;20030;-70
2023/07/18 04:19:45;;;;;;;4.22;2.03;;;20.00;80.10;;;;;;5048829;28;20075;-70
2023/07/18 04:22:10;;;;;;;2.25;1.42;;;20.60;78.20;;;;;;5028239;28;20033;-70
2023/07/18 04:24:36;;;;;;;3.28;1.80;;;21.30;75.20;;;;;;5048729;28;20475;-70
2023/07/18 04:27:01;;;;;;;2.60;1.45;;;21.90;72.60;;;;;;5041029;28;20029;-71
2023/07/18 04:29:27;;;;;;;2.28;1.60;;;22.40;70.30;;;;;;5046795;28;20422;-70
2023/07/18 04:31:53;;;;;;;2.08;1.70;;;22.90;68.60;;;;;;5039404;28;20033;-71
2023/07/18 04:34:18;;;;;;;4.05;1.85;;;23.40;65.60;;;;;;5029877;28;20051;-71
2023/07/18 04:36:44;;;;;;;5.28;1.70;;;23.80;64.50;;;;;;5046457;28;20043;-71
2023/07/18 04:39:10;;;;;;;2.03;1.20;;;24.30;62.10;;;;;;5029672;28;20631;-69
2023/07/18 04:41:35;;;;;;;2.95;1.40;;;24.70;60.00;;;;;;5046571;28;20037;-71
2023/07/18 04:44:01;;;;;;;3.05;1.60;;;25.10;58.10;;;;;;5029510;28;20025;-71
2023/07/18 04:46:27;;;;;;;1.90;1.65;;;25.60;56.50;;;;;;5045159;28;20086;-71
2023/07/18 04:48:52;;;;;;;4.35;1.85;;;25.90;53.70;;;;;;5029561;28;20467;-71
2023/07/18 04:51:18;;;;;;;2.25;1.58;;;26.10;48.10;;;;;;5046356;28;20035;-71
2023/07/18 04:53:43;;;;;;;3.00;1.70;;;26.30;46.10;;;;;;5047504;28;20663;-70
2023/07/18 04:56:09;;;;;;;1.90;1.58;;;26.60;48.30;;;;;;5033317;28;20033;-70
2023/07/18 04:58:34;;;;;;;1.70;1.30;;;27.00;47.00;;;;;;5049049;28;20060;-70
2023/07/18 05:01:02;;;;;;;2.45;1.55;;;27.40;44.60;;;;;;5031967;28;20064;-71
2023/07/18 05:03:28;;;;;;;2.15;1.50;;;27.70;43.00;;;;;;5047629;28;20065;-70
2023/07/18 05:05:55;;;;;;;2.30;1.75;;;28.10;41.20;;;;;;5027343;28;20033;-71
2023/07/18 05:08:21;;;;;;;2.08;1.40;;;28.50;39.40;;;;;;5047273;28;20017;-70
2023/07/18 05:10:46;;;;;;;2.58;1.73;;;28.80;36.80;;;;;;5029896;28;20230;-70
2023/07/18 05:13:12;;;;;;;1.70;1.60;;;29.20;34.50;;;;;;5048630;28;20048;-70
2023/07/18 05:15:37;;;;;;;2.10;1.30;;;29.50;32.80;;;;;;5028679;28;20125;-74
2023/07/18 05:18:03;;;;;;;3.22;1.60;;;29.80;31.20;;;;;;5048660;28;20060;-74
2023/07/18 05:20:29;;;;;;;2.30;1.52;;;30.20;29.70;;;;;;5026036;28;20025;-73
2023/07/18 05:22:55;;;;;;;1.75;1.30;;;30.40;27.20;;;;;;5048641;28;20021;-73
2023/07/18 05:25:21;;;;;;;2.03;1.60;;;30.60;26.70;;;;;;5029028;28;20041;-74
2023/07/18 05:27:46;;;;;;;3.28;1.70;;;31.00;25.60;;;;;;5044496;28;20480;-73
2023/07/18 05:30:15;;;;;;;2.17;1.35;;;31.30;24.40;;;;;;5039705;28;20051;-73
2023/07/18 05:32:41;;;;;;;2.10;1.50;;;31.80;23.60;;;;;;5027758;28;20039;-73
2023/07/18 05:35:11;;;;;;;1.98;1.52;;;32.20;22.50;;;;;;5047538;28;20423;-70
2023/07/18 05:37:40;;;;;;;1.58;1.30;;;32.60;21.10;;;;;;5026581;28;20060;-73
2023/07/18 05:40:09;;;;;;;2.83;1.50;;;32.80;19.90;;;;;;5048031;28;20029;-73
2023/07/18 05:42:35;;;;;;;3.75;1.90;;;33.00;19.10;;;;;;5026354;28;20029;-73
2023/07/18 05:45:00;;;;;;;2.60;1.80;;;33.30;18.10;;;;;;5047177;28;20083;-73
2023/07/18 05:47:26;;;;;;;2.60;1.70;;;33.10;17.50;;;;;;5027015;28;20113;-74
2023/07/18 05:49:51;;;;;;;3.70;1.70;;;32.10;17.40;;;;;;5047404;28;20021;-73
2023/07/18 05:52:17;;;;;;;1.70;1.58;;;31.40;17.50;;;;;;5026759;28;20100;-74
2023/07/18 05:54:42;;;;;;;2.38;1.58;;;30.90;17.70;;;;;;5047193;28;20060;-73
2023/07/18 05:57:07;;;;;;;3.13;1.42;;;30.70;17.30;;;;;;5040561;28;20033;-73
2023/07/18 05:59:34;;;;;;;1.70;1.40;;;31.00;17.10;;;;;;5047924;28;20087;-73
2023/07/18 06:01:59;;;;;;;1.85;1.67;;;31.90;16.30;;;;;;5026466;28;20252;-73
2023/07/18 06:04:25;;;;;;;2.95;1.50;;;32.70;15.20;;;;;;5028937;28;20485;-74
2023/07/18 06:06:50;;;;;;;3.22;1.70;;;33.60;14.30;;;;;;5021452;28;20025;-73
2023/07/18 06:09:16;;;;;;;3.80;1.45;;;34.30;12.40;;;;;;5029620;28;20107;-74
2023/07/18 06:11:42;;;;;;;2.75;1.63;;;34.40;12.70;;;;;;5047622;28;20040;-74
2023/07/18 06:14:07;;;;;;;1.83;1.40;;;34.50;12.30;;;;;;5023371;28;20021;-73
2023/07/18 06:16:33;;;;;;;3.63;1.60;;;34.70;11.70;;;;;;5030731;28;20036;-74
2023/07/18 06:18:59;;;;;;;2.00;1.52;;;34.70;11.20;;;;;;5031927;28;20049;-74
2023/07/18 06:21:26;;;;;;;2.67;1.40;;;34.40;11.20;;;;;;5021979;28;20647;-75
2023/07/18 06:23:55;;;;;;;5.05;1.60;;;34.40;10.90;;;;;;5018736;28;20018;-73
2023/07/18 06:26:21;;;;;;;2.97;1.60;;;34.60;10.50;;;;;;5031360;28;20034;-74
2023/07/18 06:28:46;;;;;;;2.10;1.70;;;34.90;10.00;;;;;;5048339;28;20035;-73
2023/07/18 06:31:14;;;;;;;4.55;1.42;;;35.40;9.50;;;;;;5050956;28;20049;-73
2023/07/18 06:33:40;;;;;;;2.25;1.50;;;35.80;8.90;;;;;;5031325;28;20025;-75
2023/07/18 06:36:05;;;;;;;1.45;1.35;;;36.10;8.50;;;;;;5029959;28;20489;-74
2023/07/18 06:38:31;;;;;;;2.55;1.95;;;36.80;8.00;;;;;;5042505;28;20080;-71
2023/07/18 06:40:56;;;;;;;2.80;1.45;;;37.20;6.90;;;;;;5029075;28;20029;-75
2023/07/18 06:43:22;;;;;;;2.05;1.40;;;37.70;6.70;;;;;;5050084;28;20044;-76
2023/07/18 06:45:48;;;;;;;4.18;1.88;;;38.10;6.20;;;;;;5029622;28;20036;-75
2023/07/18 06:48:14;;;;;;;1.40;1.30;;;38.50;5.50;;;;;;5049958;28;20067;-75
2023/07/18 06:50:46;;;;;;;1.85;1.20;;;39.10;4.70;;;;;;5029467;28;20100;-75
2023/07/18 06:53:12;;;;;;;2.08;1.30;;;39.80;3.10;;;;;;5050237;28;20036;-74
2023/07/18 06:55:37;;;;;;;2.95;1.40;;;40.20;3.70;;;;;;5026069;28;20060;-75
2023/07/18 06:58:03;;;;;;;1.77;1.40;;;40.50;3.10;;;;;;5050137;28;20033;-75
2023/07/18 07:00:29;;;;;;;2.47;1.75;;;40.70;2.60;;;;;;5050366;28;20028;-76
2023/07/18 07:02:54;;;;;;;1.60;1.30;;;40.80;2.30;;;;;;5011116;28;20112;-76
2023/07/18 07:05:20;;;;;;;2.08;1.40;;;40.90;1.90;;;;;;5041647;28;20034;-76
2023/07/18 07:07:47;;;;;;;3.05;1.33;;;40.90;1.60;;;;;;5018914;28;20033;-76
2023/07/18 07:10:12;;;;;;;1.77;1.38;;;41.20;1.30;;;;;;5049758;28;20056;-76
2023/07/18 07:12:38;;;;;;;1.52;1.30;;;41.40;1.00;;;;;;5029079;28;20604;-76
2023/07/18 07:15:04;;;;;;;3.00;1.40;;;41.60;1.00;;;;;;5049508;28;20111;-76
2023/07/18 07:17:29;;;;;;;2.17;1.48;;;41.90;1.00;;;;;;5029130;28;20722;-76
2023/07/18 07:19:55;;;;;;;3.47;1.60;;;42.30;1.00;;;;;;5049475;28;20099;-76
2023/07/18 07:22:20;;;;;;;3.42;2.00;;;41.90;1.00;;;;;;5028926;28;20032;-77
2023/07/18 07:24:47;;;;;;;1.77;1.33;;;41.50;1.00;;;;;;5049755;28;20473;-77
2023/07/18 07:27:13;;;;;;;1.80;1.40;;;41.70;1.00;;;;;;5027650;28;20064;-77
2023/07/18 07:29:39;;;;;;;2.38;1.52;;;42.00;1.00;;;;;;5045586;28;20033;-77
2023/07/18 07:32:06;;;;;;;3.53;1.67;;;41.90;1.00;;;;;;5041125;28;20021;-77
2023/07/18 07:34:32;;;;;;;2.15;1.50;;;41.60;1.00;;;;;;5050362;28;20029;-77
2023/07/18 07:36:57;;;;;;;2.55;1.48;;;41.50;1.00;;;;;;5028861;28;20556;-77
2023/07/18 07:39:23;;;;;;;4.25;1.60;;;41.40;1.00;;;;;;5049285;28;20198;-77
2023/07/18 07:41:48;;;;;;;1.58;1.40;;;41.20;1.00;;;;;;5028696;28;20038;-77
2023/07/18 07:44:14;;;;;;;2.05;1.65;;;41.50;1.00;;;;;;5049355;28;20749;-77
2023/07/18 07:46:39;;;;;;;2.42;1.73;;;40.70;1.00;;;;;;5028910;28;20033;-78
2023/07/18 07:49:05;;;;;;;1.92;1.33;;;40.60;1.00;;;;;;5049402;28;20508;-77
2023/07/18 07:51:30;;;;;;;3.08;1.60;;;40.90;1.00;;;;;;5027403;28;20532;-76
2023/07/18 07:53:58;;;;;;;2.33;1.52;;;41.00;1.00;;;;;;5049136;28;20075;-76
2023/07/18 07:56:23;;;;;;;2.30;1.40;;;41.10;1.00;;;;;;5027948;28;20123;-75
2023/07/18 07:58:49;;;;;;;3.25;1.20;;;41.30;1.00;;;;;;5029768;28;20501;-77
2023/07/18 08:01:14;;;;;;;2.20;1.58;;;41.80;1.00;;;;;;5047060;28;20037;-78
2023/07/18 08:03:40;;;;;;;2.65;1.40;;;41.70;1.00;;;;;;5049744;28;20028;-76
2023/07/18 08:06:06;;;;;;;3.03;1.40;;;41.50;1.00;;;;;;5039150;28;20105;-77
2023/07/18 08:08:31;;;;;;;2.72;1.60;;;41.30;1.00;;;;;;5029983;28;20032;-78
2023/07/18 08:10:57;;;;;;;1.63;1.20;;;41.00;1.00;;;;;;5043339;28;20021;-77
2023/07/18 08:13:22;;;;;;;2.17;1.30;;;40.90;1.00;;;;;;5029738;28;20032;-77
2023/07/18 08:15:48;;;;;;;2.25;1.40;;;40.30;1.00;;;;;;5044509;28;20039;-77
2023/07/18 08:18:13;;;;;;;2.85;1.15;;;39.50;1.00;;;;;;5029358;28;20117;-77
2023/07/18 08:20:39;;;;;;;1.88;1.38;;;38.30;1.00;;;;;;5045265;28;20047;-76
2023/07/18 08:23:05;;;;;;;1.63;1.35;;;37.30;1.00;;;;;;5029107;28;20449;-76
2023/07/18 08:25:30;;;;;;;3.35;1.70;;;37.20;1.00;;;;;;5046204;28;20021;-74
2023/07/18 08:27:56;;;;;;;1.77;1.35;;;36.90;1.00;;;;;;5029018;28;20094;-76
2023/07/18 08:30:22;;;;;;;3.80;1.10;;;36.50;1.00;;;;;;5038215;28;20069;-75
2023/07/18 08:32:48;;;;;;;3.30;1.45;;;36.10;1.00;;;;;;5027434;28;20025;-76
2023/07/18 08:35:13;;;;;;;2.38;1.60;;;35.80;1.00;;;;;;5047976;28;20175;-76
2023/07/18 08:37:41;;;;;;;2.58;1.40;;;35.50;1.00;;;;;;5027258;28;20038;-75
2023/07/18 08:40:09;;;;;;;2.40;1.42;;;34.80;1.00;;;;;;5048454;28;20024;-75
2023/07/18 08:42:37;;;;;;;2.80;1.60;;;34.20;1.80;;;;;;5027106;28;20095;-75
2023/07/18 08:45:03;;;;;;;3.15;1.70;;;33.80;1.60;;;;;;5047912;28;20067;-75
2023/07/18 08:47:29;;;;;;;4.50;1.50;;;33.80;2.00;;;;;;5027012;28;20041;-75
2023/07/18 08:49:55;;;;;;;4.88;1.50;;;34.00;1.90;;;;;;5047941;28;20063;-76
2023/07/18 08:52:20;;;;;;;2.53;1.70;;;33.90;2.10;;;;;;5027372;28;20429;-76
2023/07/18 08:54:46;;;;;;;1.98;1.20;;;33.80;2.00;;;;;;5047690;28;20254;-76
2023/07/18 08:57:12;;;;;;;3.35;1.50;;;33.60;2.20;;;;;;5027114;28;20036;-75
2023/07/18 08:59:39;;;;;;;2.65;1.15;;;33.50;2.40;;;;;;5047497;28;20405;-61
2023/07/18 09:02:04;;;;;;;1.45;1.17;;;33.50;2.50;;;;;;5026767;28;20540;-72
2023/07/18 09:04:31;;;;;;;2.95;1.80;;;33.40;2.70;;;;;;5046529;28;20029;-66
2023/07/18 09:06:58;;;;;;;3.15;1.45;;;33.10;2.80;;;;;;5018996;28;20037;-66
2023/07/18 09:09:24;;;;;;;2.10;1.30;;;32.70;2.90;;;;;;5047489;28;20044;-66
2023/07/18 09:12:00;;;;;;;4.00;1.88;;;32.40;3.10;;;;;;5026592;28;20508;-66
2023/07/18 09:14:28;;;;;;;1.67;1.15;;;32.20;2.90;;;;;;5047376;28;20031;-66
2023/07/18 09:16:55;;;;;;;2.97;1.75;;;32.10;3.50;;;;;;5038031;28;20032;-66
2023/07/18 09:19:44;;;;;;;1.65;1.15;;;31.70;3.30;;;;;;5047656;28;20120;-66
2023/07/18 09:22:12;;;;;;;3.63;1.40;;;31.50;3.60;;;;;;5020144;28;20121;-66
2023/07/18 09:24:38;;;;;;;2.40;1.60;;;31.20;3.70;;;;;;5047325;28;20481;-66
2023/07/18 09:27:05;;;;;;;4.30;1.50;;;31.20;3.70;;;;;;5026483;28;20436;-66
2023/07/18 09:29:31;;;;;;;2.50;1.67;;;31.30;4.00;;;;;;5044258;28;20052;-66
2023/07/18 09:31:57;;;;;;;3.03;1.48;;;31.20;3.70;;;;;;5025777;28;20030;-66
2023/07/18 09:34:25;;;;;;;4.35;1.50;;;31.40;4.10;;;;;;5046924;28;20025;-66
2023/07/18 09:36:58;;;;;;;2.10;1.58;;;31.60;3.70;;;;;;5026061;28;20661;-66
2023/07/18 09:39:24;;;;;;;2.55;1.20;;;31.70;4.00;;;;;;5047450;28;20279;-67
2023/07/18 09:41:51;;;;;;;2.97;1.38;;;31.80;3.70;;;;;;5025340;28;20459;-66
2023/07/18 09:44:18;;;;;;;2.08;1.50;;;31.80;3.40;;;;;;5029562;28;20030;-66
2023/07/18 09:46:44;;;;;;;3.08;1.52;;;31.80;3.30;;;;;;5025342;28;20445;-67
2023/07/18 09:49:10;;;;;;;2.97;1.17;;;31.60;3.30;;;;;;5029783;28;20112;-66
2023/07/18 09:51:38;;;;;;;1.40;1.30;;;31.40;3.30;;;;;;5025446;28;20041;-67
2023/07/18 09:54:06;;;;;;;3.15;1.98;;;31.40;3.40;;;;;;5046892;28;20442;-67
2023/07/18 09:56:38;;;;;;;2.22;1.50;;;31.40;3.50;;;;;;5025599;28;20029;-66
2023/07/18 09:59:07;;;;;;;1.95;1.40;;;31.30;3.60;;;;;;5047446;28;20036;-67
2023/07/18 10:01:32;;;;;;;5.60;1.55;;;31.20;3.50;;;;;;5033352;28;20021;-67
2023/07/18 10:03:59;;;;;;;3.42;1.20;;;31.10;3.50;;;;;;5027854;28;20616;-67
2023/07/18 10:06:26;;;;;;;2.45;1.50;;;30.90;3.60;;;;;;5037213;28;20033;-66
2023/07/18 10:08:54;;;;;;;2.45;1.20;;;30.60;3.50;;;;;;5047250;28;20041;-66
2023/07/18 10:11:19;;;;;;;2.25;1.48;;;30.40;3.60;;;;;;5025729;28;20120;-66
2023/07/18 10:13:54;;;;;;;2.42;1.30;;;30.10;3.70;;;;;;5027305;28;20561;-66
2023/07/18 10:16:20;;;;;;;1.17;1.10;;;30.00;4.20;;;;;;5038362;28;20029;-66
2023/07/18 10:18:52;;;;;;;1.65;1.20;;;29.80;3.80;;;;;;5027182;28;20277;-67
2023/07/18 10:21:35;;;;;;;3.58;1.33;;;29.60;4.90;;;;;;5039123;28;20033;-66
2023/07/18 10:24:21;;;;;;;2.08;1.50;;;29.50;5.20;;;;;;5046742;28;20564;-66
2023/07/18 10:27:07;;;;;;;2.03;1.40;;;29.40;5.10;;;;;;5034959;28;20025;-66
2023/07/18 10:29:38;;;;;;;1.73;1.20;;;29.40;5.10;;;;;;5012747;28;20053;-66
2023/07/18 10:32:05;;;;;;;2.25;1.40;;;29.10;4.90;;;;;;5033119;28;20080;-66
2023/07/18 10:34:37;;;;;;;3.08;1.70;;;28.80;5.00;;;;;;5046446;28;20116;-66
2023/07/18 10:37:07;;;;;;;2.67;1.60;;;28.70;5.20;;;;;;5016817;28;20054;-67
2023/07/18 10:39:37;;;;;;;3.10;1.70;;;28.60;5.30;;;;;;5026752;28;20579;-67
2023/07/18 10:42:07;;;;;;;1.75;1.30;;;28.40;5.50;;;;;;5032462;28;20061;-67
2023/07/18 10:44:37;;;;;;;1.77;1.27;;;28.20;5.70;;;;;;5046478;28;20048;-66
2023/07/18 10:47:14;;;;;;;2.53;1.67;;;28.20;5.70;;;;;;5023047;28;20492;-66
2023/07/18 10:49:39;;;;;;;2.13;1.30;;;28.10;5.90;;;;;;5026955;28;20083;-66
2023/07/18 10:52:06;;;;;;;2.13;1.45;;;28.10;5.60;;;;;;5036685;28;20029;-66
2023/07/18 10:54:31;;;;;;;3.25;1.23;;;28.00;5.80;;;;;;5017307;28;20044;-65
2023/07/18 10:56:57;;;;;;;3.33;1.13;;;28.00;5.60;;;;;;5029153;28;20495;-66
2023/07/18 10:59:22;;;;;;;2.28;1.13;;;28.00;5.70;;;;;;5043894;28;20039;-66
2023/07/18 11:01:48;;;;;;;1.65;1.20;;;28.10;6.10;;;;;;5026416;28;20056;-66
2023/07/18 11:04:13;;;;;;;2.15;1.33;;;28.20;5.80;;;;;;5044796;28;20040;-66
2023/07/18 11:06:55;;;;;;;1.90;1.20;;;28.40;5.80;;;;;;5035574;28;20029;-66
2023/07/18 11:09:20;;;;;;;1.80;1.25;;;28.40;5.30;;;;;;5019742;28;20513;-65
2023/07/18 11:11:46;;;;;;;2.33;1.20;;;28.40;5.90;;;;;;5044367;28;20102;-66
2023/07/18 11:14:12;;;;;;;1.95;1.25;;;28.40;5.70;;;;;;5037254;28;20034;-66
2023/07/18 11:16:37;;;;;;;1.98;1.25;;;28.30;5.60;;;;;;5042763;28;20029;-66
2023/07/18 11:19:05;;;;;;;1.40;1.30;;;28.10;5.70;;;;;;5044252;28;20268;-66
2023/07/18 11:21:32;;;;;;;2.45;1.02;;;28.10;5.90;;;;;;5025610;28;20645;-66
2023/07/18 11:23:59;;;;;;;2.50;1.30;;;28.10;5.80;;;;;;5031095;28;20099;-66
2023/07/18 11:26:25;;;;;;;2.15;1.38;;;28.00;6.30;;;;;;5026319;28;20034;-66
2023/07/18 11:28:51;;;;;;;1.95;1.30;;;28.00;6.10;;;;;;5026940;28;20034;-66
2023/07/18 11:31:27;;;;;;;1.20;1.10;;;27.80;6.30;;;;;;5027007;28;20049;-66
2023/07/18 11:33:53;;;;;;;;;;;27.70;6.40;;;;;;5012012;28;20040;-66
2023/07/18 11:36:21;;;;;;;3.60;1.35;;;27.50;6.20;;;;;;5026484;28;19913;-66
2023/07/18 11:38:50;;;;;;;1.95;1.25;;;27.60;6.10;;;;;;5035931;28;20033;-66
2023/07/18 11:41:36;;;;;;;2.60;1.33;;;27.60;6.10;;;;;;5027193;28;20025;-66
2023/07/18 11:44:02;;;;;;;2.53;1.27;;;27.70;7.40;;;;;;5007878;28;20105;-67
2023/07/18 11:46:38;;;;;;;1.63;1.13;;;27.70;6.10;;;;;;5044209;28;20059;-66
2023/07/18 11:49:04;;;;;;;4.22;1.30;;;27.60;6.40;;;;;;5026926;28;20692;-66
2023/07/18 11:51:31;;;;;;;2.08;1.13;;;27.60;6.50;;;;;;5023393;28;20017;-66
2023/07/18 11:53:57;;;;;;;2.88;1.35;;;27.60;6.60;;;;;;5024636;28;20624;-67
2023/07/18 11:56:22;;;;;;;1.48;1.30;;;27.50;7.00;;;;;;5033447;28;20027;-66
2023/07/18 11:58:48;;;;;;;2.10;1.13;;;27.50;6.70;;;;;;5044064;28;20400;-66
2023/07/18 12:01:13;;;;;;;1.30;1.20;;;27.60;6.60;;;;;;5046526;28;20029;-66
2023/07/18 12:03:40;;;;;;;2.08;1.20;;;27.50;6.50;;;;;;5025395;28;20033;-66
2023/07/18 12:06:05;;;;;;;1.45;0.88;;;27.50;6.20;;;;;;5035808;28;20145;-67
2023/07/18 12:08:31;;;;;;;2.28;1.60;;;27.50;6.20;;;;;;5025110;28;20025;-67
2023/07/18 12:10:57;;;;;;;2.70;1.40;;;27.50;6.50;;;;;;5026524;28;20026;-67
2023/07/18 12:13:22;;;;;;;1.92;1.27;;;27.50;6.40;;;;;;5037365;28;20091;-67
2023/07/18 12:15:48;;;;;;;2.67;1.00;;;27.50;6.30;;;;;;5025427;28;20025;-67
2023/07/18 12:18:13;;;;;;;2.47;1.20;;;27.60;6.40;;;;;;5031728;28;20033;-67
2023/07/18 12:20:39;;;;;;;4.57;1.20;;;27.70;6.40;;;;;;5026846;28;20043;-67
2023/07/18 12:23:04;;;;;;;2.80;1.23;;;27.60;6.50;;;;;;5038226;28;20040;-67
2023/07/18 12:25:31;;;;;;;1.88;1.35;;;27.60;6.20;;;;;;5026341;28;20034;-66
2023/07/18 12:27:58;;;;;;;1.42;0.98;;;27.60;6.20;;;;;;5043709;28;20025;-66
2023/07/18 12:30:24;;;;;;;2.33;1.20;;;27.60;6.30;;;;;;5045811;28;20033;-67
2023/07/18 12:32:49;;;;;;;1.15;0.95;;;27.60;6.20;;;;;;5026798;28;20022;-67
2023/07/18 12:35:15;;;;;;;2.22;1.20;;;27.70;6.00;;;;;;5024687;28;20234;-67
2023/07/18 12:37:41;;;;;;;3.33;1.10;;;27.60;6.10;;;;;;5045139;28;20492;-67
2023/07/18 12:40:07;;;;;;;1.38;1.27;;;27.60;6.20;;;;;;5024727;28;20056;-67
2023/07/18 12:42:33;;;;;;;1.38;1.00;;;27.50;6.10;;;;;;5035898;28;20032;-67
2023/07/18 12:44:58;;;;;;;1.30;0.90;;;27.40;6.20;;;;;;5027582;28;20563;-66
2023/07/18 12:47:24;;;;;;;2.13;1.15;;;27.50;6.30;;;;;;5047305;28;20059;-66
2023/07/18 12:49:49;;;;;;;2.67;1.25;;;27.40;6.40;;;;;;5026933;28;20032;-66